Terminal Aerodrome Forecast
Issued by NWS

Home | Current Version | Previous Version | Text Only | Print | Product List | Glossary On
Versions: 1 2 3 4 5 6 7 8 9 10 11 12 13 14 15 16 17 18 19
000
FTUS43 KSGF 271700 AAC
TAFJLN
TAF AMD
KJLN 271700Z 2717/2812 33009KT 6SM -RASNDZ BR FEW008 SCT015 OVC070
      TEMPO 2717/2719 1 1/2SM -SN BR BKN007 OVC015
     FM271900 34009KT P6SM SCT020 OVC070
     FM280200 35005KT P6SM FEW150 BKN250=

USA.gov is the U.S. government's official web portal to all federal, state and local government web resources and services.